createdAt,value
2016-06-06T08:40:08.621Z,255
2016-06-06T08:40:20.433Z,260
2016-06-06T08:41:21.530Z,260
2016-06-06T08:42:21.673Z,260
2016-06-06T08:43:21.458Z,265
2016-06-06T08:44:23.085Z,270
2016-06-06T08:45:21.791Z,270
2016-06-06T08:46:21.496Z,280
2016-06-06T08:47:21.718Z,280
2016-06-06T08:49:35.661Z,280
2016-06-06T08:50:21.069Z,280
2016-06-06T08:51:21.791Z,285
2016-06-06T08:52:21.638Z,275
2016-06-06T08:53:21.296Z,275
2016-06-06T08:54:21.799Z,280
2016-06-06T08:55:21.646Z,275
2016-06-06T08:56:21.835Z,275
2016-06-06T08:57:22.057Z,275
2016-06-06T08:58:21.825Z,275
2016-06-06T08:59:21.532Z,275
2016-06-06T09:00:21.706Z,280
2016-06-06T09:01:21.740Z,280
2016-06-06T09:02:21.931Z,280
2016-06-06T09:03:21.729Z,275
2016-06-06T09:04:21.748Z,275
2016-06-06T09:05:21.767Z,275
2016-06-06T09:06:35.847Z,275
2016-06-06T09:07:22.006Z,275
2016-06-06T09:08:22.274Z,270
2016-06-06T09:09:21.231Z,275
2016-06-06T09:10:21.920Z,275
2016-06-06T09:11:22.033Z,275
2016-06-06T09:12:21.833Z,275
2016-06-06T09:13:21.366Z,280
2016-06-06T09:14:22.259Z,285
2016-06-06T09:16:21.874Z,285
2016-06-06T09:17:21.955Z,280
2016-06-06T09:18:21.927Z,285
2016-06-06T09:19:22.351Z,290
2016-06-06T09:20:22.166Z,290
2016-06-06T09:21:36.497Z,300
2016-06-06T09:22:22.077Z,300
2016-06-06T09:23:22.268Z,300
2016-06-06T09:24:22.568Z,310
2016-06-06T09:25:22.117Z,315
2016-06-06T09:26:22.135Z,315
2016-06-06T09:27:22.154Z,320
2016-06-06T09:28:21.688Z,310
2016-06-06T09:29:22.503Z,315
2016-06-06T09:30:22.099Z,325
2016-06-06T09:31:22.336Z,335
2016-06-06T09:32:22.323Z,350
2016-06-06T09:33:22.357Z,345
2016-06-06T09:34:22.048Z,335
2016-06-06T09:35:22.426Z,335
2016-06-06T09:36:22.193Z,335
2016-06-06T09:37:36.275Z,335
2016-06-06T09:38:22.605Z,335
2016-06-06T09:39:22.045Z,340
2016-06-06T09:40:21.751Z,345
2016-06-06T09:41:22.254Z,365
2016-06-06T09:42:22.100Z,395
2016-06-06T09:43:22.666Z,405
2016-06-06T09:44:23.168Z,425
2016-06-06T09:45:36.359Z,390
2016-06-06T09:46:22.517Z,355
2016-06-06T09:47:22.192Z,335
2016-06-06T09:48:22.772Z,345
2016-06-06T09:49:22.369Z,350
2016-06-06T09:50:22.418Z,365
2016-06-06T09:51:22.624Z,360
2016-06-06T09:52:22.596Z,390
2016-06-06T09:53:22.521Z,410
2016-06-06T09:54:23.102Z,440
2016-06-06T09:55:22.729Z,490
2016-06-06T09:56:22.685Z,560
2016-06-06T09:57:22.563Z,710
2016-06-06T09:58:22.565Z,875
2016-06-06T09:59:23.162Z,440
2016-06-06T10:00:22.618Z,415
2016-06-06T10:01:22.590Z,365
2016-06-06T10:02:22.576Z,345
2016-06-06T10:03:22.798Z,340
2016-06-06T10:04:22.675Z,345
2016-06-06T10:05:23.271Z,375
2016-06-06T10:06:22.618Z,460
2016-06-06T10:07:22.699Z,760
2016-06-06T10:08:22.654Z,820
2016-06-06T10:09:23.282Z,395
2016-06-06T10:10:22.691Z,365
2016-06-06T10:12:22.962Z,360
2016-06-06T10:13:22.792Z,355
2016-06-06T10:14:23.906Z,1230
2016-06-06T10:15:22.986Z,1565
2016-06-06T10:16:22.973Z,1610
2016-06-06T10:17:22.866Z,1585
2016-06-06T10:18:23.072Z,925
2016-06-06T10:19:23.091Z,590
2016-06-06T10:20:23.094Z,415
2016-06-06T10:21:22.861Z,1515
2016-06-06T10:22:23.130Z,390
2016-06-06T10:23:23.164Z,390
2016-06-06T10:24:23.088Z,330
2016-06-06T10:25:22.919Z,340
2016-06-06T10:26:23.000Z,345
2016-06-06T10:28:22.926Z,355
2016-06-06T10:29:23.102Z,350
2016-06-06T10:30:22.979Z,355
2016-06-06T10:31:22.685Z,360
2016-06-06T10:32:23.218Z,365
2016-06-06T10:33:23.034Z,365
2016-06-06T10:34:22.818Z,355
2016-06-06T10:35:37.134Z,345
2016-06-06T10:36:23.120Z,360
2016-06-06T10:37:23.311Z,365
2016-06-06T10:38:23.094Z,375
2016-06-06T10:39:23.317Z,310
2016-06-06T10:40:23.115Z,310
2016-06-06T10:41:23.212Z,310
2016-06-06T10:42:23.011Z,310
2016-06-06T10:44:23.923Z,355
2016-06-06T10:45:37.333Z,370
2016-06-06T10:46:23.241Z,385
2016-06-06T10:47:23.541Z,395
2016-06-06T10:48:23.325Z,395
2016-06-06T10:49:23.296Z,410
2016-06-06T10:50:23.361Z,425
2016-06-06T10:51:23.130Z,455
2016-06-06T10:52:23.633Z,485
2016-06-06T10:53:23.432Z,515
2016-06-06T10:54:37.732Z,515
2016-06-06T10:55:23.985Z,505
2016-06-06T10:56:23.674Z,480
2016-06-06T10:57:23.396Z,445
2016-06-06T10:59:23.995Z,380
2016-06-06T11:00:23.669Z,345
2016-06-06T11:01:23.516Z,335
2016-06-06T11:02:23.503Z,350
2016-06-06T11:03:23.818Z,380
2016-06-06T11:04:38.055Z,410
2016-06-06T11:05:23.574Z,415
2016-06-06T11:06:24.702Z,415
2016-06-06T11:07:23.642Z,355
2016-06-06T11:08:23.862Z,350
2016-06-06T11:09:23.881Z,360
2016-06-06T11:10:24.087Z,390
2016-06-06T11:11:23.653Z,435
2016-06-06T11:12:23.905Z,470
2016-06-06T11:13:23.798Z,495
2016-06-06T11:14:38.411Z,495
2016-06-06T11:15:24.459Z,495
2016-06-06T11:16:23.791Z,490
2016-06-06T11:17:23.996Z,535
2016-06-06T11:18:23.797Z,550
2016-06-06T11:19:23.627Z,565
2016-06-06T11:20:24.645Z,575
2016-06-06T11:21:23.836Z,575
2016-06-06T11:22:24.010Z,580
2016-06-06T11:23:38.122Z,575
2016-06-06T11:24:23.828Z,565
2016-06-06T11:25:37.955Z,520
2016-06-06T11:26:24.161Z,500
2016-06-06T11:27:24.383Z,510
2016-06-06T11:28:23.932Z,495
2016-06-06T11:29:24.201Z,475
2016-06-06T11:30:23.782Z,520
2016-06-06T11:31:23.956Z,495
2016-06-06T11:32:24.552Z,465
2016-06-06T11:33:23.977Z,425
2016-06-06T11:35:24.107Z,395
2016-06-06T11:36:25.845Z,375
2016-06-06T11:37:23.941Z,315
2016-06-06T11:38:24.287Z,315
2016-06-06T11:39:24.118Z,300
2016-06-06T11:40:25.761Z,295
2016-06-06T11:41:24.545Z,290
2016-06-06T11:42:24.142Z,270
2016-06-06T11:43:24.895Z,300
2016-06-06T11:44:24.272Z,290
2016-06-06T11:45:39.228Z,290
2016-06-06T11:46:24.200Z,290
2016-06-06T11:47:24.186Z,280
2016-06-06T11:48:24.470Z,275
2016-06-06T11:49:24.270Z,275
2016-06-06T11:50:24.445Z,275
2016-06-06T11:51:24.135Z,275
2016-06-06T11:52:24.309Z,275
2016-06-06T11:53:24.547Z,275
2016-06-06T11:54:38.455Z,270
2016-06-06T11:55:24.583Z,270
2016-06-06T11:56:24.195Z,265
2016-06-06T11:57:38.494Z,270
2016-06-06T11:58:24.685Z,265
2016-06-06T11:59:24.624Z,265
2016-06-06T12:00:25.175Z,265
2016-06-06T12:01:38.537Z,270
2016-06-06T12:02:24.507Z,265
2016-06-06T12:04:24.749Z,265
2016-06-06T12:05:24.407Z,265
2016-06-06T12:06:24.081Z,265
2016-06-06T12:07:24.663Z,265
2016-06-06T12:08:24.696Z,270
2016-06-06T12:09:39.120Z,270
2016-06-06T12:10:24.608Z,270
2016-06-06T12:11:23.626Z,270
2016-06-06T12:12:24.660Z,265
2016-06-06T12:13:24.710Z,265
2016-06-06T12:14:24.915Z,260
2016-06-06T12:15:24.715Z,260
2016-06-06T12:16:24.718Z,255
2016-06-06T12:17:24.439Z,255
2016-06-06T12:18:24.723Z,250
2016-06-06T12:19:24.945Z,250
2016-06-06T12:20:24.978Z,245
2016-06-06T12:21:25.216Z,250
2016-06-06T12:22:25.015Z,250
2016-06-06T12:23:25.002Z,250
2016-06-06T12:24:25.130Z,250
2016-06-06T12:25:24.897Z,245
2016-06-06T12:26:24.947Z,245
2016-06-06T12:27:24.903Z,245
2016-06-06T12:28:24.952Z,245
2016-06-06T12:30:26.271Z,245
2016-06-06T12:31:25.133Z,245
2016-06-06T12:32:25.464Z,250
2016-06-06T12:33:24.513Z,250
2016-06-06T12:34:25.250Z,245
2016-06-06T12:35:24.832Z,245
2016-06-06T12:36:25.412Z,245
2016-06-06T12:37:24.384Z,245
2016-06-06T12:38:25.057Z,245
2016-06-06T12:39:24.357Z,245
2016-06-06T12:40:25.079Z,240
2016-06-06T12:41:25.082Z,240
2016-06-06T12:42:25.131Z,240
2016-06-06T12:43:25.369Z,245
2016-06-06T12:44:24.746Z,245
2016-06-06T12:45:26.092Z,250
2016-06-06T12:46:25.595Z,250
2016-06-06T12:47:25.379Z,245
2016-06-06T12:48:25.257Z,255
2016-06-06T12:49:25.337Z,250
2016-06-06T12:50:25.684Z,250
2016-06-06T12:51:25.547Z,250
2016-06-06T12:52:25.189Z,245
2016-06-06T12:53:25.427Z,250
2016-06-06T12:54:25.945Z,250
2016-06-06T12:55:25.854Z,250
2016-06-06T12:56:39.466Z,250
2016-06-06T12:57:25.577Z,245
2016-06-06T12:58:25.440Z,250
2016-06-06T12:59:25.239Z,250
2016-06-06T13:00:25.602Z,250
2016-06-06T13:01:25.652Z,255
2016-06-06T13:02:25.419Z,245
2016-06-06T13:03:25.672Z,245
2016-06-06T13:04:25.674Z,245
2016-06-06T13:05:25.678Z,245
2016-06-06T13:06:25.946Z,245
2016-06-06T13:07:25.510Z,245
2016-06-06T13:08:40.014Z,245
2016-06-06T13:09:25.751Z,245
2016-06-06T13:10:25.551Z,245
2016-06-06T13:11:25.568Z,250
2016-06-06T13:12:25.806Z,250
2016-06-06T13:13:25.840Z,250
2016-06-06T13:14:27.155Z,250
2016-06-06T13:15:25.532Z,250
2016-06-06T13:16:39.817Z,245
2016-06-06T13:17:25.756Z,245
2016-06-06T13:18:25.712Z,245
2016-06-06T13:19:25.309Z,245
2016-06-06T13:20:26.171Z,245
2016-06-06T13:21:25.783Z,245
2016-06-06T13:22:26.130Z,245
2016-06-06T13:23:25.586Z,245
2016-06-06T13:24:26.213Z,240
2016-06-06T13:25:25.809Z,240
2016-06-06T13:26:25.891Z,240
2016-06-06T13:27:40.424Z,240
2016-06-06T13:28:26.067Z,240
2016-06-06T13:29:27.211Z,240
2016-06-06T13:30:26.947Z,240
2016-06-06T13:31:25.904Z,240
2016-06-06T13:32:26.219Z,245
2016-06-06T13:33:25.955Z,240
2016-06-06T13:34:25.896Z,245
2016-06-06T13:35:25.993Z,255
2016-06-06T13:36:26.027Z,245
2016-06-06T13:37:26.435Z,245
2016-06-06T13:38:26.079Z,240
2016-06-06T13:39:26.066Z,245
2016-06-06T13:40:40.178Z,250
2016-06-06T13:41:40.181Z,255
2016-06-06T13:42:40.839Z,250
2016-06-06T13:43:40.405Z,250
2016-06-06T13:44:26.127Z,250
2016-06-06T13:45:27.457Z,260
2016-06-06T13:46:26.584Z,265
2016-06-06T13:47:26.385Z,285
2016-06-06T13:48:40.262Z,305
2016-06-06T13:49:26.264Z,310
2016-06-06T13:50:26.220Z,310
2016-06-06T13:51:26.286Z,290
2016-06-06T13:52:40.570Z,270
2016-06-06T13:53:41.009Z,270
2016-06-06T13:54:26.528Z,305
2016-06-06T13:55:26.750Z,340
2016-06-06T13:56:26.033Z,380
2016-06-06T13:57:25.583Z,400
2016-06-06T13:58:40.647Z,560
2016-06-06T14:00:27.966Z,410
2016-06-06T14:01:26.000Z,285
2016-06-06T14:02:26.816Z,280
2016-06-06T14:03:40.536Z,285
2016-06-06T14:04:25.977Z,285
2016-06-06T14:05:26.542Z,280
2016-06-06T14:06:26.514Z,280
2016-06-06T14:07:26.547Z,305
2016-06-06T14:08:26.566Z,280
2016-06-06T14:10:26.071Z,305
2016-06-06T14:11:26.871Z,325
2016-06-06T14:12:26.765Z,340
2016-06-06T14:13:26.657Z,1160
2016-06-06T14:14:27.363Z,385
2016-06-06T14:15:26.507Z,385
2016-06-06T14:16:26.401Z,1250
2016-06-06T14:18:41.295Z,1210
2016-06-06T14:19:26.736Z,1255
2016-06-06T14:20:26.723Z,1265
2016-06-06T14:21:26.991Z,1235
2016-06-06T14:23:26.794Z,390
2016-06-06T14:24:27.218Z,375
2016-06-06T14:25:26.846Z,360
2016-06-06T14:26:26.848Z,410
2016-06-06T14:27:26.819Z,335
2016-06-06T14:28:27.089Z,295
2016-06-06T14:29:41.028Z,285
2016-06-06T14:30:28.265Z,270
2016-06-06T14:31:26.909Z,275
2016-06-06T14:32:27.318Z,265
2016-06-06T14:33:27.196Z,275
2016-06-06T14:34:27.401Z,295
2016-06-06T14:35:29.997Z,305
2016-06-06T14:37:26.550Z,290
2016-06-06T14:38:27.052Z,285
2016-06-06T14:39:27.025Z,290
2016-06-06T14:40:27.074Z,295
2016-06-06T14:41:27.107Z,295
2016-06-06T14:42:27.188Z,305
2016-06-06T14:43:27.129Z,305
2016-06-06T14:44:26.976Z,515
2016-06-06T14:45:27.571Z,1280
2016-06-06T14:46:41.277Z,1170
2016-06-06T14:47:26.670Z,1155
2016-06-06T14:49:27.426Z,1065
2016-06-06T14:50:27.428Z,1050
2016-06-06T14:51:27.447Z,960
2016-06-06T14:52:27.262Z,940
2016-06-06T14:53:27.749Z,1015
2016-06-06T14:54:27.298Z,965
2016-06-06T14:55:27.083Z,905
2016-06-06T14:56:26.867Z,885
2016-06-06T14:57:27.369Z,890
2016-06-06T14:58:27.357Z,865
2016-06-06T14:59:28.359Z,835
2016-06-06T15:00:27.144Z,830
2016-06-06T15:01:27.427Z,835
2016-06-06T15:02:27.633Z,815
2016-06-06T15:03:27.839Z,740
2016-06-06T15:04:27.685Z,660
2016-06-06T15:05:27.453Z,615
2016-06-06T15:06:41.769Z,640
2016-06-06T15:07:27.490Z,630
2016-06-06T15:08:27.712Z,580
2016-06-06T15:09:41.824Z,560
2016-06-06T15:10:27.779Z,535
2016-06-06T15:11:27.563Z,465
2016-06-06T15:12:27.769Z,375
2016-06-06T15:13:27.646Z,350
2016-06-06T15:14:41.946Z,335
2016-06-06T15:15:28.262Z,320
2016-06-06T15:16:41.732Z,310
2016-06-06T15:17:27.689Z,285
2016-06-06T15:18:27.692Z,240
2016-06-06T15:19:27.913Z,220
2016-06-06T15:20:41.823Z,210
2016-06-06T15:21:28.184Z,210
2016-06-06T15:22:27.265Z,205
2016-06-06T15:23:27.237Z,205
2016-06-06T15:24:28.271Z,200
2016-06-06T15:25:27.664Z,200
2016-06-06T15:27:27.841Z,195
2016-06-06T15:28:28.078Z,195
2016-06-06T15:29:41.440Z,195
2016-06-06T15:30:28.659Z,190
2016-06-06T15:31:28.084Z,190
2016-06-06T15:32:27.430Z,190
2016-06-06T15:33:28.089Z,190
2016-06-06T15:34:27.997Z,190
2016-06-06T15:35:28.001Z,185
2016-06-06T15:36:27.941Z,185
2016-06-06T15:38:28.180Z,185
2016-06-06T15:39:28.574Z,185
2016-06-06T15:40:28.045Z,185
2016-06-06T15:41:41.800Z,190
2016-06-06T15:42:42.146Z,190
2016-06-06T15:43:27.912Z,190
2016-06-06T15:44:28.477Z,190
2016-06-06T15:45:29.058Z,190
2016-06-06T15:46:28.311Z,190
2016-06-06T15:47:28.205Z,190
2016-06-06T15:48:28.145Z,190
2016-06-06T15:49:28.163Z,190
2016-06-06T15:50:28.572Z,190
2016-06-06T15:51:42.265Z,190
2016-06-06T15:52:28.406Z,185
2016-06-06T15:53:28.455Z,195
2016-06-06T15:54:28.254Z,185
2016-06-06T15:55:28.460Z,190
2016-06-06T15:56:28.260Z,185
2016-06-06T15:57:27.809Z,185
2016-06-06T15:58:28.297Z,185
2016-06-06T15:59:28.518Z,185
2016-06-06T16:00:43.008Z,185
2016-06-06T16:01:28.351Z,185
2016-06-06T16:02:28.433Z,185
2016-06-06T16:03:42.688Z,185
2016-06-06T16:04:27.922Z,185
2016-06-06T16:06:28.631Z,165
2016-06-06T16:07:42.527Z,150
2016-06-06T16:08:28.652Z,145
2016-06-06T16:09:28.342Z,140
2016-06-06T16:10:28.314Z,145
2016-06-06T16:11:28.519Z,145
2016-06-06T16:12:28.741Z,145
2016-06-06T16:13:29.197Z,140
2016-06-06T16:14:43.436Z,140
2016-06-06T16:15:29.764Z,140
2016-06-06T16:16:28.596Z,140
2016-06-06T16:17:28.801Z,145
2016-06-06T16:18:28.882Z,140
2016-06-06T16:19:43.091Z,140
2016-06-06T16:20:28.841Z,140
2016-06-06T16:21:28.890Z,135
2016-06-06T16:22:28.158Z,135
2016-06-06T16:23:28.677Z,135
2016-06-06T16:24:28.585Z,135
2016-06-06T16:25:28.198Z,135
2016-06-06T16:26:28.248Z,135
2016-06-06T16:27:28.953Z,135
2016-06-06T16:28:29.346Z,140
2016-06-06T16:29:29.021Z,135
2016-06-06T16:30:29.508Z,135
2016-06-06T16:31:29.011Z,130
2016-06-06T16:32:42.906Z,130
2016-06-06T16:33:29.031Z,130
2016-06-06T16:34:29.034Z,130
2016-06-06T16:35:29.240Z,130
2016-06-06T16:36:28.868Z,130
2016-06-06T16:37:28.870Z,130
2016-06-06T16:38:28.748Z,135
2016-06-06T16:39:28.642Z,130
2016-06-06T16:40:43.444Z,130
2016-06-06T16:41:28.772Z,130
2016-06-06T16:42:29.337Z,130
2016-06-06T16:43:29.016Z,130
2016-06-06T16:44:29.040Z,130
2016-06-06T16:45:29.359Z,130
2016-06-06T16:46:29.446Z,130
2016-06-06T16:47:29.250Z,130
2016-06-06T16:48:29.287Z,130
2016-06-06T16:49:29.306Z,125
2016-06-06T16:50:29.091Z,125
2016-06-06T16:51:29.142Z,125
2016-06-06T16:52:29.100Z,125
2016-06-06T16:53:29.354Z,125
2016-06-06T16:54:29.450Z,125
2016-06-06T16:55:29.376Z,125
2016-06-06T16:56:29.629Z,125
2016-06-06T16:57:43.261Z,125
2016-06-06T16:58:29.246Z,125
2016-06-06T16:59:31.498Z,120
2016-06-06T17:00:29.517Z,120
2016-06-06T17:01:29.255Z,120
2016-06-06T17:02:29.711Z,120
2016-06-06T17:03:29.261Z,120
2016-06-06T17:04:29.528Z,120
2016-06-06T17:05:29.703Z,120
2016-06-06T17:06:29.533Z,120
2016-06-06T17:07:29.537Z,120
2016-06-06T17:08:29.352Z,115
2016-06-06T17:09:28.605Z,115
2016-06-06T17:10:29.436Z,120
2016-06-06T17:11:29.391Z,115
2016-06-06T17:12:29.097Z,115
2016-06-06T17:13:29.475Z,115
2016-06-06T17:14:29.711Z,115
2016-06-06T17:15:29.464Z,115
2016-06-06T17:16:43.985Z,110
2016-06-06T17:18:29.691Z,110
2016-06-06T17:19:30.116Z,110
2016-06-06T17:20:29.899Z,110
2016-06-06T17:21:29.543Z,110
2016-06-06T17:22:29.780Z,110
2016-06-06T17:23:29.549Z,110
2016-06-06T17:24:43.835Z,110
2016-06-06T17:25:29.788Z,105
2016-06-06T17:26:30.056Z,105
2016-06-06T17:27:29.715Z,105
2016-06-06T17:28:29.359Z,105
2016-06-06T17:29:29.955Z,105
2016-06-06T17:30:43.742Z,105
2016-06-06T17:31:30.039Z,105
2016-06-06T17:32:29.650Z,105
2016-06-06T17:33:29.420Z,105
2016-06-06T17:34:29.672Z,105
2016-06-06T17:35:30.330Z,105
2016-06-06T17:36:29.567Z,105
2016-06-06T17:37:30.180Z,100
2016-06-06T17:38:29.963Z,100
2016-06-06T17:39:44.469Z,100
2016-06-06T17:40:29.797Z,100
2016-06-06T17:41:30.424Z,100
2016-06-06T17:42:29.772Z,100
2016-06-06T17:43:30.633Z,95
2016-06-06T17:44:29.839Z,95
2016-06-06T17:45:31.185Z,95
2016-06-06T17:46:30.048Z,95
2016-06-06T17:47:43.927Z,95
2016-06-06T17:48:29.599Z,95
2016-06-06T17:49:29.916Z,95
2016-06-06T17:50:29.746Z,95
2016-06-06T17:51:29.920Z,95
2016-06-06T17:52:44.285Z,90
2016-06-06T17:53:30.145Z,90
2016-06-06T17:54:30.148Z,90
2016-06-06T17:55:30.212Z,90
2016-06-06T17:56:44.093Z,90
2016-06-06T17:57:29.984Z,85
2016-06-06T17:58:44.379Z,85
2016-06-06T17:59:30.989Z,85
2016-06-06T18:00:30.132Z,85
2016-06-06T18:01:30.260Z,80
2016-06-06T18:02:30.481Z,80
2016-06-06T18:03:30.109Z,80
2016-06-06T18:04:29.800Z,80
2016-06-06T18:05:30.286Z,80
2016-06-06T18:06:30.101Z,80
2016-06-06T18:07:44.450Z,75
2016-06-06T18:08:30.325Z,75
2016-06-06T18:09:30.406Z,75
2016-06-06T18:10:30.175Z,75
2016-06-06T18:11:33.396Z,70
2016-06-06T18:12:30.399Z,70
2016-06-06T18:13:30.449Z,70
2016-06-06T18:14:30.405Z,70
2016-06-06T18:15:30.532Z,70
2016-06-06T18:16:30.878Z,65
2016-06-06T18:17:29.788Z,65
2016-06-06T18:18:30.712Z,65
2016-06-06T18:19:30.277Z,65
2016-06-06T18:20:30.280Z,60
2016-06-06T18:21:30.299Z,60
2016-06-06T18:22:30.363Z,60
2016-06-06T18:23:44.806Z,60
2016-06-06T18:24:29.853Z,60
2016-06-06T18:25:30.357Z,55
2016-06-06T18:26:30.436Z,55
2016-06-06T18:27:30.470Z,55
2016-06-06T18:28:31.348Z,55
2016-06-06T18:29:31.351Z,50
2016-06-06T18:30:31.150Z,50
2016-06-06T18:31:30.623Z,50
2016-06-06T18:32:30.453Z,50
2016-06-06T18:33:30.470Z,50
2016-06-06T18:34:30.458Z,45
2016-06-06T18:35:30.695Z,45
2016-06-06T18:36:30.698Z,45
2016-06-06T18:37:30.575Z,45
2016-06-06T18:38:30.516Z,40
2016-06-06T18:39:44.442Z,40
2016-06-06T18:40:30.521Z,40
2016-06-06T18:41:30.602Z,40
2016-06-06T18:42:30.589Z,35
2016-06-06T18:43:30.779Z,35
2016-06-06T18:44:31.704Z,35
2016-06-06T18:46:30.663Z,35
2016-06-06T18:47:44.714Z,30
2016-06-06T18:48:30.761Z,30
2016-06-06T18:49:31.124Z,30
2016-06-06T18:50:30.719Z,30
2016-06-06T18:51:31.019Z,25
2016-06-06T18:52:30.725Z,25
2016-06-06T18:53:30.775Z,25
2016-06-06T18:54:30.715Z,25
2016-06-06T18:55:33.295Z,25
2016-06-06T18:56:30.893Z,20
2016-06-06T18:57:33.113Z,20
2016-06-06T18:58:30.741Z,20
2016-06-06T18:59:31.213Z,20
2016-06-06T19:00:31.246Z,20
2016-06-06T19:01:30.811Z,15
2016-06-06T19:02:45.129Z,15
2016-06-06T19:03:30.833Z,15
2016-06-06T19:04:30.851Z,15
2016-06-06T19:05:30.838Z,15
2016-06-06T19:06:30.841Z,10
2016-06-06T19:07:31.140Z,10
2016-06-06T19:08:30.878Z,10
2016-06-06T19:09:31.317Z,10
2016-06-06T19:10:30.977Z,10
2016-06-06T19:11:30.948Z,10
2016-06-06T19:12:30.983Z,10
2016-06-06T19:13:30.563Z,5
2016-06-06T19:14:30.956Z,5
2016-06-06T19:15:30.693Z,5
2016-06-06T19:16:31.915Z,5
2016-06-06T19:17:45.092Z,5
2016-06-06T19:18:31.202Z,5
2016-06-06T19:19:31.032Z,5
2016-06-06T19:20:44.569Z,5
2016-06-06T19:21:31.475Z,5
2016-06-06T19:22:31.025Z,5
2016-06-06T19:23:31.027Z,0
2016-06-06T19:24:31.124Z,0
2016-06-06T19:25:31.142Z,0
2016-06-06T19:26:45.585Z,0
2016-06-06T19:27:31.538Z,0
2016-06-06T19:28:31.118Z,0
2016-06-06T19:29:31.090Z,0
2016-06-06T19:30:31.109Z,0
2016-06-06T19:31:31.174Z,0
2016-06-06T19:32:31.129Z,0
2016-06-06T19:33:31.554Z,0
2016-06-06T19:34:32.463Z,0
2016-06-06T19:35:31.481Z,0
2016-06-06T19:36:31.812Z,0
2016-06-06T19:37:31.409Z,0
2016-06-06T19:38:31.224Z,0
2016-06-06T19:39:31.430Z,0
2016-06-06T19:40:31.464Z,0
2016-06-06T19:41:31.264Z,0
2016-06-06T19:42:31.453Z,0
2016-06-06T19:43:31.487Z,0
2016-06-06T19:44:31.287Z,0
2016-06-06T19:45:31.289Z,0
2016-06-06T19:46:45.452Z,0
2016-06-06T19:47:31.295Z,0
2016-06-06T19:48:44.988Z,0
2016-06-06T19:49:32.675Z,0
2016-06-06T19:50:30.724Z,0
2016-06-06T19:51:45.293Z,0
2016-06-06T19:52:31.636Z,0
2016-06-06T19:53:31.389Z,0
2016-06-06T19:54:31.579Z,0
2016-06-06T19:55:31.238Z,0
2016-06-06T19:56:31.601Z,0
2016-06-06T19:57:31.447Z,0
2016-06-06T19:58:31.512Z,0
2016-06-06T20:00:31.439Z,0
2016-06-06T20:01:32.082Z,0
2016-06-06T20:02:31.445Z,0
2016-06-06T20:03:32.337Z,0
2016-06-06T20:04:31.403Z,0
2016-06-06T20:05:32.563Z,0
2016-06-06T20:06:31.736Z,0
2016-06-06T20:07:31.521Z,0
2016-06-06T20:08:31.945Z,0
2016-06-06T20:09:31.526Z,0
2016-06-06T20:10:31.981Z,0
2016-06-06T20:11:34.609Z,0
2016-06-06T20:12:31.784Z,0
2016-06-06T20:13:45.555Z,0
2016-06-06T20:14:31.602Z,0
2016-06-06T20:15:31.777Z,0
2016-06-06T20:16:31.404Z,0
2016-06-06T20:17:46.144Z,0
2016-06-06T20:18:31.785Z,0
2016-06-06T20:19:31.209Z,0
2016-06-06T20:20:46.419Z,0
2016-06-06T20:21:46.014Z,0
2016-06-06T20:22:31.889Z,0
2016-06-06T20:23:31.688Z,0
2016-06-06T20:24:31.691Z,0
2016-06-06T20:25:31.913Z,0
2016-06-06T20:26:31.899Z,0
2016-06-06T20:27:31.965Z,0
2016-06-06T20:29:31.940Z,0
2016-06-06T20:30:31.817Z,0
2016-06-06T20:31:31.804Z,0
2016-06-06T20:32:31.260Z,0
2016-06-06T20:34:32.250Z,0
2016-06-06T20:35:32.081Z,0
2016-06-06T20:36:31.848Z,0
2016-06-06T20:37:31.820Z,0
2016-06-06T20:38:32.729Z,0
2016-06-06T20:39:31.841Z,0
2016-06-06T20:40:31.859Z,0
2016-06-06T20:41:32.284Z,0
2016-06-06T20:42:31.850Z,0
2016-06-06T20:43:32.133Z,0
2016-06-06T20:44:32.042Z,0
2016-06-06T20:45:31.403Z,0
2016-06-06T20:46:31.922Z,0
2016-06-06T20:47:31.988Z,0
2016-06-06T20:48:32.475Z,0
2016-06-06T20:49:32.852Z,0
2016-06-06T20:50:33.417Z,0
2016-06-06T20:51:48.454Z,0
2016-06-06T20:52:33.938Z,0
2016-06-06T20:53:32.066Z,0
2016-06-06T20:54:46.055Z,0
2016-06-06T20:55:35.618Z,0
2016-06-06T20:56:32.043Z,0
2016-06-06T20:57:32.280Z,0
2016-06-06T20:58:32.127Z,0
2016-06-06T20:59:32.082Z,0
2016-06-06T21:00:46.182Z,0
2016-06-06T21:01:32.119Z,0
2016-06-06T21:02:32.107Z,0
2016-06-06T21:03:31.782Z,0
2016-06-06T21:04:32.298Z,0
2016-06-06T21:05:45.555Z,0
2016-06-06T21:06:32.149Z,0
2016-06-06T21:07:32.135Z,0
2016-06-06T21:08:32.137Z,0
2016-06-06T21:09:32.359Z,0
2016-06-06T21:10:32.378Z,0
2016-06-06T21:11:32.740Z,0
2016-06-06T21:12:32.586Z,0
2016-06-06T21:13:32.276Z,0
2016-06-06T21:14:32.389Z,0
2016-06-06T21:15:32.595Z,0
2016-06-06T21:16:32.659Z,0
2016-06-06T21:17:32.647Z,0
2016-06-06T21:18:46.496Z,0
2016-06-06T21:20:32.872Z,0
2016-06-06T21:21:31.516Z,0
2016-06-06T21:22:32.269Z,0
2016-06-06T21:23:32.881Z,0
2016-06-06T21:24:32.462Z,0
2016-06-06T21:25:32.371Z,0
2016-06-06T21:26:32.155Z,0
2016-06-06T21:27:32.314Z,0
2016-06-06T21:28:32.691Z,0
2016-06-06T21:29:32.569Z,0
2016-06-06T21:30:32.541Z,0
2016-06-06T21:31:32.762Z,0
2016-06-06T21:32:32.609Z,0
2016-06-06T21:33:32.345Z,0
2016-06-06T21:34:32.192Z,0
2016-06-06T21:35:32.960Z,0
2016-06-06T21:36:32.588Z,0
2016-06-06T21:37:32.450Z,0
2016-06-06T21:38:32.406Z,0
2016-06-06T21:39:32.424Z,0
2016-06-06T21:40:32.177Z,0
2016-06-06T21:41:46.261Z,0
2016-06-06T21:43:46.437Z,0
2016-06-06T21:44:32.437Z,0
2016-06-06T21:45:32.456Z,0
2016-06-06T21:46:32.458Z,0
2016-06-06T21:47:33.149Z,0
2016-06-06T21:48:32.011Z,0
2016-06-06T21:49:32.514Z,0
2016-06-06T21:50:34.375Z,0
2016-06-06T21:51:32.519Z,0
2016-06-06T21:52:32.772Z,0
2016-06-06T21:53:32.572Z,0
2016-06-06T21:54:32.293Z,0
2016-06-06T21:55:32.577Z,0
2016-06-06T21:56:32.563Z,0
2016-06-06T21:57:32.582Z,0
2016-06-06T21:58:33.022Z,0
2016-06-06T21:59:46.668Z,0
2016-06-06T22:00:32.809Z,0
2016-06-06T22:01:32.687Z,0
2016-06-06T22:02:32.643Z,0
2016-06-06T22:03:32.661Z,0
2016-06-06T22:04:32.679Z,0
2016-06-06T22:05:33.119Z,0
2016-06-06T22:06:33.543Z,0
2016-06-06T22:07:32.687Z,0
2016-06-06T22:08:32.674Z,0
2016-06-06T22:09:32.693Z,0
2016-06-06T22:10:46.773Z,0
2016-06-06T22:11:32.917Z,0
2016-06-06T22:12:32.904Z,0
2016-06-06T22:13:33.001Z,0
2016-06-06T22:14:33.128Z,0
2016-06-06T22:15:32.787Z,0
2016-06-06T22:16:50.261Z,0
2016-06-06T22:17:32.730Z,0
2016-06-06T22:18:34.247Z,0
2016-06-06T22:19:33.157Z,0
2016-06-06T22:20:32.988Z,0
2016-06-06T22:21:33.162Z,0
2016-06-06T22:22:32.805Z,0
2016-06-06T22:23:32.871Z,0
2016-06-06T22:24:32.624Z,0
2016-06-06T22:25:33.048Z,0
2016-06-06T22:26:32.800Z,0
2016-06-06T22:27:32.319Z,0
2016-06-06T22:28:32.821Z,0
2016-06-06T22:29:32.715Z,0
2016-06-06T22:31:32.830Z,0
2016-06-06T22:32:47.021Z,0
2016-06-06T22:33:33.398Z,0
2016-06-06T22:35:32.888Z,0
2016-06-06T22:36:33.077Z,0
2016-06-06T22:37:33.112Z,0
2016-06-06T22:38:32.474Z,0
2016-06-06T22:39:32.929Z,0
2016-06-06T22:40:32.760Z,0
2016-06-06T22:41:32.935Z,0
2016-06-06T22:42:33.250Z,0
2016-06-06T22:43:33.315Z,0
2016-06-06T22:44:33.833Z,0
2016-06-06T22:45:47.492Z,0
2016-06-06T22:46:47.886Z,0
2016-06-06T22:47:33.014Z,0
2016-06-06T22:48:32.845Z,0
2016-06-06T22:49:46.659Z,0
2016-06-06T22:50:33.677Z,0
2016-06-06T22:51:33.102Z,0
2016-06-06T22:52:47.527Z,0
2016-06-06T22:53:33.030Z,0
2016-06-06T22:54:33.033Z,0
2016-06-06T22:55:32.894Z,0
2016-06-06T22:56:33.038Z,0
2016-06-06T22:57:32.915Z,0
2016-06-06T22:58:33.122Z,0
2016-06-06T22:59:33.296Z,0
2016-06-06T23:00:32.782Z,0
2016-06-06T23:01:33.144Z,0
2016-06-06T23:02:33.507Z,0
2016-06-06T23:03:33.104Z,0
2016-06-06T23:04:33.310Z,0
2016-06-06T23:05:33.593Z,0
2016-06-06T23:06:34.049Z,0
2016-06-06T23:07:33.396Z,0
2016-06-06T23:08:33.352Z,0
2016-06-06T23:09:33.370Z,0
2016-06-06T23:10:33.168Z,0